Time;durP1;ratioP1;P1;durP2;ratioP2;P2;SDS_P1;SDS_P2;PMS_P1;PMS_P2;Temp;Humidity;BMP_temperature;BMP_pressure;BME280_temperature;BME280_humidity;BME280_pressure;Samples;Min_cycle;Max_cycle;Signal;HPM_P1;HPM_P2
2022/10/10 00:00:29;;;;;;;6.17;4.40;;;;;;;7.13;100.00;100006.03;6307035;22;20210;-78
2022/10/10 00:02:56;;;;;;;4.80;4.30;;;;;;;7.05;100.00;99996.28;6308097;22;20252;-79
2022/10/10 00:05:23;;;;;;;5.97;4.70;;;;;;;7.13;100.00;99999.88;6308448;22;20203;-79
2022/10/10 00:07:49;;;;;;;5.93;5.33;;;;;;;7.11;100.00;100001.88;6308390;22;20595;-78
2022/10/10 00:10:16;;;;;;;6.63;5.20;;;;;;;7.01;100.00;99989.69;6307868;22;20680;-78
2022/10/10 00:12:42;;;;;;;7.00;5.90;;;;;;;6.96;100.00;100002.75;6307890;22;20659;-78
2022/10/10 00:15:11;;;;;;;7.80;5.30;;;;;;;6.99;100.00;99996.22;6307874;22;20685;-78
2022/10/10 00:17:39;;;;;;;7.03;5.47;;;;;;;7.06;100.00;99997.94;6307722;22;20667;-78
2022/10/10 00:20:06;;;;;;;6.87;5.90;;;;;;;7.01;100.00;99996.84;6307706;22;20207;-77
2022/10/10 00:22:32;;;;;;;6.90;5.80;;;;;;;7.00;100.00;99996.03;6308005;22;20203;-78
2022/10/10 00:24:59;;;;;;;6.60;5.93;;;;;;;7.01;100.00;99994.19;6307578;22;20678;-78
2022/10/10 00:27:25;;;;;;;6.70;5.27;;;;;;;6.99;100.00;99986.41;6308068;22;20207;-78
2022/10/10 00:29:52;;;;;;;8.97;5.87;;;;;;;7.00;100.00;99984.53;6308293;22;20524;-79
2022/10/10 00:32:18;;;;;;;6.87;5.10;;;;;;;6.98;100.00;99987.41;6307158;22;20203;-78
2022/10/10 00:34:45;;;;;;;5.90;4.57;;;;;;;7.04;100.00;99984.00;6307909;22;20199;-79
2022/10/10 00:37:12;;;;;;;7.43;4.40;;;;;;;7.15;100.00;99982.66;6307670;22;20206;-79
2022/10/10 00:39:38;;;;;;;5.00;3.70;;;;;;;7.13;100.00;99974.06;6307662;22;20207;-79
2022/10/10 00:42:05;;;;;;;5.43;4.07;;;;;;;7.18;100.00;99978.81;6306925;22;20279;-78
2022/10/10 00:44:31;;;;;;;4.40;3.40;;;;;;;7.26;100.00;99979.50;6280696;22;20651;-79
2022/10/10 00:46:58;;;;;;;4.20;2.80;;;;;;;7.26;100.00;99981.34;6307639;22;20673;-79
2022/10/10 00:49:26;;;;;;;4.97;4.03;;;;;;;7.18;100.00;99976.97;6280380;22;20686;-79
2022/10/10 00:51:55;;;;;;;4.23;3.40;;;;;;;7.22;100.00;99974.75;6305781;22;20217;-79
2022/10/10 00:54:23;;;;;;;4.90;3.60;;;;;;;7.25;100.00;99977.84;6277996;22;20597;-79
2022/10/10 00:56:55;;;;;;;5.27;3.40;;;;;;;7.21;100.00;99970.44;6304026;22;20217;-79
2022/10/10 00:59:22;;;;;;;4.30;2.90;;;;;;;7.22;100.00;99970.25;6305607;22;20667;-79
2022/10/10 01:01:49;;;;;;;3.50;2.83;;;;;;;7.21;100.00;99971.25;6278421;22;20539;-79
2022/10/10 01:04:37;;;;;;;3.90;3.23;;;;;;;7.18;100.00;99971.66;6291526;22;20731;-79
2022/10/10 01:07:23;;;;;;;4.97;3.10;;;;;;;7.14;100.00;99969.56;6305351;22;20207;-79
2022/10/10 01:09:51;;;;;;;3.40;2.60;;;;;;;7.07;100.00;99964.97;6278453;22;20281;-80
2022/10/10 01:12:39;;;;;;;4.90;2.97;;;;;;;7.12;100.00;99968.91;6277008;22;20207;-79
2022/10/10 01:15:15;;;;;;;5.10;2.97;;;;;;;7.00;100.00;99964.06;6305100;22;20344;-79
2022/10/10 01:17:42;;;;;;;3.67;2.80;;;;;;;7.11;100.00;99957.41;6305657;22;20205;-79
2022/10/10 01:20:52;;;;;;;4.43;2.83;;;;;;;6.95;100.00;99966.44;6304908;22;20261;-78
2022/10/10 01:23:24;;;;;;;5.63;2.90;;;;;;;6.90;100.00;99952.91;6265019;22;20208;-79
2022/10/10 01:26:05;;;;;;;3.10;2.70;;;;;;;6.85;100.00;99952.63;6305685;22;20720;-79
2022/10/10 01:28:50;;;;;;;2.93;2.63;;;;;;;6.80;100.00;99956.88;6277899;22;20752;-78
2022/10/10 01:31:21;;;;;;;4.03;2.73;;;;;;;6.76;100.00;99951.09;6276607;22;20228;-79
2022/10/10 01:33:53;;;;;;;3.60;2.93;;;;;;;6.76;100.00;99952.94;6279189;22;20523;-79
2022/10/10 01:36:37;;;;;;;4.67;2.83;;;;;;;6.75;100.00;99944.13;6304855;22;20282;-78
2022/10/10 01:39:22;;;;;;;3.00;2.53;;;;;;;6.83;100.00;99946.66;6278302;22;20560;-78
2022/10/10 01:42:00;;;;;;;3.03;2.67;;;;;;;6.66;100.00;99939.09;6278125;22;20207;-79
2022/10/10 01:44:27;;;;;;;3.73;2.80;;;;;;;6.62;100.00;99934.13;6278597;22;20223;-79
2022/10/10 01:46:53;;;;;;;3.97;3.00;;;;;;;6.60;100.00;99938.81;6305372;22;20199;-79
2022/10/10 01:49:24;;;;;;;4.50;2.63;;;;;;;6.57;100.00;99927.72;6305476;22;20550;-78
2022/10/10 01:51:57;;;;;;;4.83;2.57;;;;;;;6.52;100.00;99935.44;6278141;22;20294;-78
2022/10/10 01:54:48;;;;;;;3.17;2.63;;;;;;;6.55;100.00;99929.72;6277734;22;20648;-78
2022/10/10 01:57:31;;;;;;;4.67;2.90;;;;;;;6.51;100.00;99928.47;6305633;22;20472;-78
2022/10/10 02:00:07;;;;;;;3.13;2.57;;;;;;;6.48;100.00;99931.50;6277974;22;20612;-79
2022/10/10 02:02:49;;;;;;;3.33;2.90;;;;;;;6.47;100.00;99925.34;6277837;22;20309;-79
2022/10/10 02:05:49;;;;;;;5.77;2.47;;;;;;;6.43;100.00;99925.91;6305108;22;20203;-79
2022/10/10 02:08:25;;;;;;;4.40;2.63;;;;;;;6.45;100.00;99923.88;6304112;22;20227;-79
2022/10/10 02:10:55;;;;;;;3.33;2.87;;;;;;;6.46;100.00;99930.84;6277402;22;20243;-78
2022/10/10 02:13:28;;;;;;;3.00;2.70;;;;;;;6.49;100.00;99918.00;6277509;22;20210;-78
2022/10/10 02:15:56;;;;;;;3.57;2.57;;;;;;;6.43;100.00;99912.59;6277688;22;20213;-78
2022/10/10 02:18:26;;;;;;;4.03;2.67;;;;;;;6.45;100.00;99915.88;6276873;22;20211;-78
2022/10/10 02:20:53;;;;;;;4.60;2.60;;;;;;;6.52;100.00;99917.63;6277511;22;20226;-79
2022/10/10 02:23:21;;;;;;;2.63;2.30;;;;;;;6.61;100.00;99911.19;6277383;22;20262;-78
2022/10/10 02:25:54;;;;;;;4.23;2.43;;;;;;;6.69;100.00;99912.91;6304659;22;20207;-78
2022/10/10 02:28:32;;;;;;;3.43;2.40;;;;;;;6.75;100.00;99914.00;6277203;22;20242;-78
2022/10/10 02:31:01;;;;;;;3.70;2.57;;;;;;;6.84;100.00;99910.19;6277565;22;20252;-78
2022/10/10 02:33:55;;;;;;;3.60;2.53;;;;;;;7.05;100.00;99916.34;6304891;22;20683;-78
2022/10/10 02:36:22;;;;;;;3.57;2.33;;;;;;;7.13;100.00;99915.44;6304328;22;20279;-78
2022/10/10 02:38:51;;;;;;;5.13;2.80;;;;;;;7.38;100.00;99921.19;6277797;22;20663;-78
2022/10/10 02:41:19;;;;;;;3.50;2.63;;;;;;;7.30;100.00;99914.16;6305161;22;20194;-78
2022/10/10 02:43:48;;;;;;;3.07;2.77;;;;;;;7.35;100.00;99916.22;6305011;22;20211;-78
2022/10/10 02:46:14;;;;;;;3.67;3.07;;;;;;;7.32;100.00;99913.97;6276992;22;20730;-80
2022/10/10 02:48:41;;;;;;;4.53;2.63;;;;;;;7.44;100.00;99912.41;6278263;22;20240;-80
2022/10/10 02:51:08;;;;;;;4.10;2.70;;;;;;;7.52;100.00;99912.28;6305954;22;20281;-79
2022/10/10 02:53:36;;;;;;;5.73;2.90;;;;;;;7.56;100.00;99910.88;6279526;22;20244;-79
2022/10/10 02:56:03;;;;;;;4.20;2.60;;;;;;;7.58;100.00;99908.00;6305959;22;20566;-78
2022/10/10 02:58:30;;;;;;;3.00;2.53;;;;;;;7.59;100.00;99905.16;6306272;22;20209;-81
2022/10/10 03:00:57;;;;;;;3.57;2.50;;;;;;;7.58;100.00;99908.00;6306732;22;20619;-80
2022/10/10 03:03:24;;;;;;;4.30;3.03;;;;;;;7.68;100.00;99908.50;6306450;22;20207;-80
2022/10/10 03:05:51;;;;;;;4.43;2.67;;;;;;;7.71;100.00;99906.25;6306587;22;20209;-78
2022/10/10 03:08:18;;;;;;;3.87;2.70;;;;;;;7.72;100.00;99904.44;6305743;22;20207;-79
2022/10/10 03:10:56;;;;;;;6.53;2.40;;;;;;;7.86;100.00;99909.66;6306310;22;20253;-79
2022/10/10 03:13:23;;;;;;;3.67;2.23;;;;;;;7.82;100.00;99910.25;6279141;22;20205;-79
2022/10/10 03:15:50;;;;;;;6.00;3.10;;;;;;;8.04;100.00;99905.66;6306583;22;20207;-79
2022/10/10 03:18:16;;;;;;;5.40;2.40;;;;;;;8.01;100.00;99911.41;6305981;22;20245;-79
2022/10/10 03:20:44;;;;;;;3.43;2.60;;;;;;;8.10;100.00;99905.72;6306499;22;20252;-78
2022/10/10 03:23:12;;;;;;;3.60;2.40;;;;;;;8.18;100.00;99905.53;6306395;22;20678;-79
2022/10/10 03:25:44;;;;;;;4.80;2.57;;;;;;;8.33;100.00;99903.59;6306363;22;20213;-79
2022/10/10 03:28:11;;;;;;;4.90;2.60;;;;;;;8.38;100.00;99901.16;6306031;22;20231;-78
2022/10/10 03:30:38;;;;;;;3.80;2.80;;;;;;;8.45;100.00;99893.16;6306290;22;20207;-79
2022/10/10 03:33:05;;;;;;;4.73;2.57;;;;;;;8.41;100.00;99891.91;6306271;22;20199;-79
2022/10/10 03:35:32;;;;;;;3.50;2.70;;;;;;;8.39;100.00;99894.81;6280093;22;20209;-79
2022/10/10 03:37:59;;;;;;;4.00;2.70;;;;;;;8.47;100.00;99887.63;6308352;22;20203;-78
2022/10/10 03:40:27;;;;;;;3.60;2.63;;;;;;;8.54;100.00;99891.16;6307670;22;20209;-78
2022/10/10 03:42:53;;;;;;;2.70;2.33;;;;;;;8.59;100.00;99888.69;6308282;22;20210;-79
2022/10/10 03:45:20;;;;;;;4.20;2.80;;;;;;;8.69;100.00;99883.78;6308130;22;20207;-79
2022/10/10 03:47:46;;;;;;;5.10;2.90;;;;;;;8.66;100.00;99881.53;6307958;22;20203;-80
2022/10/10 03:50:13;;;;;;;4.43;2.77;;;;;;;8.60;100.00;99885.81;6307281;22;20207;-78
2022/10/10 03:52:39;;;;;;;4.00;2.63;;;;;;;8.71;100.00;99874.56;6306440;22;20210;-79
2022/10/10 03:55:06;;;;;;;3.20;2.63;;;;;;;8.63;100.00;99877.41;6306265;22;20211;-79
2022/10/10 03:57:33;;;;;;;3.20;2.90;;;;;;;8.67;100.00;99877.84;6306294;22;20783;-79
2022/10/10 04:00:00;;;;;;;3.90;2.90;;;;;;;8.63;100.00;99874.72;6304876;22;20728;-79
2022/10/10 04:02:26;;;;;;;4.03;3.17;;;;;;;8.60;100.00;99874.31;6305971;22;20203;-79
2022/10/10 04:04:53;;;;;;;4.07;3.00;;;;;;;8.67;100.00;99868.00;6306163;22;20207;-79
2022/10/10 04:07:19;;;;;;;2.93;2.50;;;;;;;8.60;100.00;99863.63;6306395;22;20265;-79
2022/10/10 04:09:46;;;;;;;4.13;2.67;;;;;;;8.53;100.00;99866.31;6306065;22;20575;-79
2022/10/10 04:12:12;;;;;;;4.93;3.00;;;;;;;8.57;100.00;99872.06;6305654;22;20199;-78
2022/10/10 04:14:39;;;;;;;4.50;2.47;;;;;;;8.67;100.00;99864.50;6306208;22;20663;-78
2022/10/10 04:17:05;;;;;;;5.03;2.83;;;;;;;8.65;100.00;99867.34;6305491;22;20282;-79
2022/10/10 04:19:32;;;;;;;3.03;2.73;;;;;;;8.56;100.00;99860.56;6303804;22;20211;-79
2022/10/10 04:21:58;;;;;;;7.47;3.00;;;;;;;8.44;100.00;99864.84;6304026;22;20671;-79
2022/10/10 04:24:25;;;;;;;3.57;2.80;;;;;;;8.43;100.00;99862.34;6305415;22;20713;-79
2022/10/10 04:26:52;;;;;;;4.47;3.40;;;;;;;8.44;100.00;99858.66;6305974;22;20670;-79
2022/10/10 04:29:18;;;;;;;4.27;3.10;;;;;;;8.49;100.00;99867.69;6305984;22;20208;-79
2022/10/10 04:31:45;;;;;;;6.07;3.00;;;;;;;8.58;100.00;99861.19;6305967;22;20686;-79
2022/10/10 04:34:11;;;;;;;4.23;2.77;;;;;;;8.62;100.00;99861.59;6305264;22;20559;-79
2022/10/10 04:36:38;;;;;;;4.70;2.80;;;;;;;8.97;100.00;99851.59;6305877;22;20211;-79
2022/10/10 04:39:05;;;;;;;3.80;2.97;;;;;;;9.18;100.00;99859.44;6305519;22;20207;-79
2022/10/10 04:41:31;;;;;;;2.60;2.40;;;;;;;9.31;100.00;99851.41;6306355;22;20184;-78
2022/10/10 04:43:58;;;;;;;6.20;3.23;;;;;;;9.42;100.00;99860.69;6305706;22;20211;-79
2022/10/10 04:46:25;;;;;;;3.97;3.30;;;;;;;9.37;100.00;99853.28;6303211;22;20195;-79
2022/10/10 04:48:51;;;;;;;4.43;3.00;;;;;;;9.58;100.00;99850.38;6305725;22;20697;-79
2022/10/10 04:51:18;;;;;;;6.57;3.63;;;;;;;9.66;100.00;99857.34;6305554;22;20200;-79
2022/10/10 04:53:45;;;;;;;5.00;3.30;;;;;;;9.61;100.00;99863.31;6305991;22;20577;-78
2022/10/10 04:56:16;;;;;;;5.23;2.77;;;;;;;9.66;100.00;99858.16;6305038;22;20217;-80
2022/10/10 04:58:42;;;;;;;3.40;2.70;;;;;;;9.63;100.00;99863.94;6278504;22;20218;-79
2022/10/10 05:01:09;;;;;;;3.53;2.80;;;;;;;9.59;100.00;99861.88;6303668;22;20282;-79
2022/10/10 05:03:35;;;;;;;2.93;2.60;;;;;;;9.62;100.00;99867.63;6305930;22;20584;-79
2022/10/10 05:06:02;;;;;;;5.47;3.00;;;;;;;9.48;100.00;99857.16;6304834;22;20212;-78
2022/10/10 05:08:29;;;;;;;4.03;2.80;;;;;;;9.46;100.00;99867.25;6305127;22;20210;-78
2022/10/10 05:10:55;;;;;;;5.10;2.80;;;;;;;9.34;100.00;99861.69;6305334;22;20203;-79
2022/10/10 05:13:22;;;;;;;4.77;2.70;;;;;;;9.35;100.00;99866.00;6306064;22;20237;-79
2022/10/10 05:15:50;;;;;;;4.47;3.13;;;;;;;9.32;100.00;99868.28;6305243;22;20241;-79
2022/10/10 05:18:17;;;;;;;2.97;2.77;;;;;;;9.30;100.00;99865.81;6304800;22;20242;-78
2022/10/10 05:20:46;;;;;;;4.03;3.20;;;;;;;9.37;100.00;99866.66;6278423;22;20203;-79
2022/10/10 05:23:13;;;;;;;4.00;2.77;;;;;;;9.38;100.00;99868.25;6305190;22;20210;-79
2022/10/10 05:25:47;;;;;;;5.07;2.80;;;;;;;9.34;100.00;99864.38;6304796;22;20219;-79
2022/10/10 05:28:13;;;;;;;3.93;2.80;;;;;;;9.28;100.00;99867.88;6277619;22;20682;-78
2022/10/10 05:30:40;;;;;;;5.47;3.00;;;;;;;9.33;100.00;99873.44;6306428;22;20557;-78
2022/10/10 05:33:07;;;;;;;4.63;3.17;;;;;;;9.40;100.00;99881.44;6305246;22;20203;-79
2022/10/10 05:35:33;;;;;;;5.87;3.03;;;;;;;9.42;100.00;99871.38;6305304;22;20208;-79
2022/10/10 05:38:00;;;;;;;7.47;3.10;;;;;;;9.52;100.00;99871.75;6305053;22;20199;-79
2022/10/10 05:40:27;;;;;;;7.50;3.10;;;;;;;9.56;100.00;99865.00;6304972;22;20196;-79
2022/10/10 05:42:53;;;;;;;6.13;3.27;;;;;;;9.69;100.00;99871.16;6305116;22;20286;-79
2022/10/10 05:45:20;;;;;;;3.83;3.10;;;;;;;9.74;100.00;99859.81;6305121;22;20217;-79
2022/10/10 05:47:46;;;;;;;5.27;3.40;;;;;;;9.93;100.00;99875.00;6305095;22;20200;-79
2022/10/10 05:50:24;;;;;;;8.47;3.23;;;;;;;9.93;100.00;99866.16;6304451;22;20203;-79
2022/10/10 05:52:51;;;;;;;5.60;3.30;;;;;;;10.02;100.00;99871.09;6304796;22;20274;-79
2022/10/10 05:55:18;;;;;;;7.00;2.83;;;;;;;10.04;100.00;99866.31;6304593;22;20200;-79
2022/10/10 05:57:45;;;;;;;7.13;3.30;;;;;;;10.23;100.00;99870.00;6304408;22;20278;-79
2022/10/10 06:00:12;;;;;;;5.33;3.17;;;;;;;10.30;100.00;99870.00;6304154;22;20659;-79
2022/10/10 06:02:38;;;;;;;7.70;3.30;;;;;;;10.49;100.00;99872.59;6305400;22;20541;-79
2022/10/10 06:05:05;;;;;;;6.50;3.10;;;;;;;10.53;100.00;99867.63;6288640;22;20208;-79
2022/10/10 06:07:32;;;;;;;5.73;3.10;;;;;;;10.57;100.00;99871.53;6303930;22;20207;-79
2022/10/10 06:10:19;;;;;;;4.50;3.03;;;;;;;10.71;100.00;99875.78;6304198;22;20563;-78
2022/10/10 06:12:45;;;;;;;5.17;3.30;;;;;;;10.84;100.00;99874.88;6304967;22;20540;-80
2022/10/10 06:15:12;;;;;;;6.43;3.80;;;;;;;10.91;100.00;99872.97;6304418;22;20204;-81
2022/10/10 06:17:38;;;;;;;4.30;2.90;;;;;;;11.02;100.00;99865.06;6304295;22;20203;-81
2022/10/10 06:20:05;;;;;;;6.50;3.20;;;;;;;11.17;100.00;99877.34;6303414;22;20273;-80
2022/10/10 06:22:32;;;;;;;4.17;3.10;;;;;;;11.32;100.00;99873.31;6304644;22;20206;-81
2022/10/10 06:24:59;;;;;;;7.37;3.33;;;;;;;11.33;100.00;99871.44;6304444;22;20246;-81
2022/10/10 06:27:25;;;;;;;4.50;2.93;;;;;;;11.41;100.00;99866.63;6304313;22;20199;-81
2022/10/10 06:29:52;;;;;;;4.43;3.30;;;;;;;11.40;100.00;99875.72;6304758;22;20211;-81
2022/10/10 06:32:18;;;;;;;4.90;3.37;;;;;;;11.42;100.00;99873.66;6304771;22;20214;-82
2022/10/10 06:34:45;;;;;;;3.17;2.87;;;;;;;11.53;100.00;99868.56;6304031;22;20199;-81
2022/10/10 06:37:12;;;;;;;4.57;3.07;;;;;;;11.58;100.00;99876.78;6303628;22;20211;-81
2022/10/10 06:39:38;;;;;;;3.83;3.13;;;;;;;11.65;100.00;99864.97;6303938;22;20241;-81
2022/10/10 06:42:05;;;;;;;4.90;3.20;;;;;;;11.69;100.00;99870.72;6303838;22;20218;-81
2022/10/10 06:44:32;;;;;;;5.93;2.97;;;;;;;11.86;100.00;99864.59;6304320;22;20685;-82
2022/10/10 06:46:59;;;;;;;7.13;2.97;;;;;;;11.74;100.00;99863.69;6304346;22;20207;-80
2022/10/10 06:49:28;;;;;;;6.37;3.03;;;;;;;11.80;100.00;99857.41;6304031;22;20727;-80
2022/10/10 06:51:54;;;;;;;5.17;3.40;;;;;;;11.88;100.00;99864.38;6277555;22;20207;-80
2022/10/10 06:54:21;;;;;;;5.23;3.30;;;;;;;12.01;100.00;99866.91;6303767;22;20214;-79
2022/10/10 06:56:47;;;;;;;4.60;3.00;;;;;;;11.94;100.00;99857.28;6305128;22;20202;-80
2022/10/10 06:59:14;;;;;;;5.63;3.30;;;;;;;11.93;100.00;99861.03;6304810;22;20203;-80
2022/10/10 07:01:40;;;;;;;5.43;3.30;;;;;;;12.10;100.00;99862.88;6305233;22;20211;-79
2022/10/10 07:04:08;;;;;;;5.57;3.00;;;;;;;12.17;100.00;99855.59;6303776;22;20207;-80
2022/10/10 07:06:35;;;;;;;5.40;3.43;;;;;;;12.25;100.00;99854.47;6277777;22;20207;-80
2022/10/10 07:09:02;;;;;;;8.90;4.43;;;;;;;12.29;100.00;99866.38;6304870;22;20679;-81
2022/10/10 07:11:28;;;;;;;4.37;3.53;;;;;;;12.39;100.00;99860.50;6305641;22;20207;-79
2022/10/10 07:13:55;;;;;;;7.20;4.00;;;;;;;12.55;100.00;99865.25;6305112;22;20221;-80
2022/10/10 07:16:22;;;;;;;7.97;3.20;;;;;;;12.65;100.00;99852.06;6304596;22;20206;-80
2022/10/10 07:18:48;;;;;;;7.40;3.20;;;;;;;12.82;100.00;99863.84;6306350;22;20539;-80
2022/10/10 07:21:15;;;;;;;6.43;3.20;;;;;;;12.91;100.00;99869.72;6306157;22;20203;-80
2022/10/10 07:23:41;;;;;;;4.90;3.27;;;;;;;13.10;100.00;99865.91;6306058;22;20229;-79
2022/10/10 07:26:13;;;;;;;4.67;3.23;;;;;;;13.23;100.00;99865.75;6304853;22;20674;-81
2022/10/10 07:28:39;;;;;;;7.80;3.40;;;;;;;13.31;100.00;99857.31;6306027;22;20203;-78
2022/10/10 07:31:08;;;;;;;5.07;3.23;;;;;;;13.52;96.43;99864.03;6305829;22;20695;-80
2022/10/10 07:33:41;;;;;;;6.77;3.30;;;;;;;13.56;95.00;99849.88;6278855;22;20747;-79
2022/10/10 07:36:15;;;;;;;5.43;3.20;;;;;;;13.73;94.66;99860.75;6305294;22;20211;-78
2022/10/10 07:38:41;;;;;;;5.40;3.10;;;;;;;13.80;92.27;99861.47;6305965;22;20204;-79
2022/10/10 07:41:11;;;;;;;5.97;3.37;;;;;;;13.98;92.74;99853.25;6305367;22;20648;-79
2022/10/10 07:43:38;;;;;;;5.90;3.20;;;;;;;14.13;90.72;99851.94;6306004;22;20204;-79
2022/10/10 07:46:05;;;;;;;4.73;3.07;;;;;;;14.32;87.03;99848.88;6304650;22;20715;-78
2022/10/10 07:48:36;;;;;;;6.97;3.37;;;;;;;14.35;87.55;99847.56;6305609;22;20208;-78
2022/10/10 07:51:06;;;;;;;5.33;3.17;;;;;;;14.45;88.28;99848.63;6304988;22;20255;-79
2022/10/10 07:53:33;;;;;;;5.73;3.10;;;;;;;14.58;84.23;99846.69;6305253;22;20208;-79
2022/10/10 07:55:59;;;;;;;7.57;3.40;;;;;;;14.64;82.73;99843.03;6305169;22;20209;-79
2022/10/10 07:58:26;;;;;;;6.47;3.00;;;;;;;14.75;82.48;99853.75;6278029;22;20533;-79
2022/10/10 08:01:04;;;;;;;7.10;3.23;;;;;;;14.84;81.41;99836.13;6304919;22;20201;-79
2022/10/10 08:03:31;;;;;;;8.03;3.30;;;;;;;15.01;80.56;99841.56;6278129;22;20237;-79
2022/10/10 08:05:57;;;;;;;7.53;3.57;;;;;;;14.97;80.35;99841.25;6305032;22;20209;-78
2022/10/10 08:08:24;;;;;;;5.23;3.27;;;;;;;15.05;79.75;99850.81;6277836;22;20206;-80
2022/10/10 08:10:50;;;;;;;4.90;3.17;;;;;;;15.19;79.55;99848.63;6305024;22;20212;-79
2022/10/10 08:13:17;;;;;;;4.37;3.20;;;;;;;15.22;77.65;99848.94;6305545;22;20215;-79
2022/10/10 08:15:43;;;;;;;5.53;2.90;;;;;;;15.34;76.08;99844.31;6305164;22;20669;-78
2022/10/10 08:18:10;;;;;;;4.53;3.17;;;;;;;15.39;75.44;99851.66;6304451;22;20222;-79
2022/10/10 08:20:37;;;;;;;3.73;3.00;;;;;;;15.39;75.02;99835.47;6305030;22;20214;-79
2022/10/10 08:23:03;;;;;;;3.83;2.87;;;;;;;15.56;74.80;99830.06;6305328;22;20217;-78
2022/10/10 08:25:30;;;;;;;6.60;3.10;;;;;;;15.67;74.71;99830.00;6304834;22;20689;-79
2022/10/10 08:27:56;;;;;;;5.43;2.87;;;;;;;15.73;73.95;99828.97;6305224;22;20209;-79
2022/10/10 08:30:23;;;;;;;3.63;2.63;;;;;;;15.80;74.15;99824.22;6304612;22;20199;-79
2022/10/10 08:32:49;;;;;;;5.60;2.97;;;;;;;15.98;72.68;99825.00;6305491;22;20220;-79
2022/10/10 08:35:16;;;;;;;4.67;2.90;;;;;;;15.98;72.14;99825.00;6304621;22;20207;-79
2022/10/10 08:37:43;;;;;;;4.83;3.20;;;;;;;16.09;71.83;99824.09;6304857;22;20210;-79
2022/10/10 08:40:14;;;;;;;4.10;3.00;;;;;;;16.13;71.33;99812.50;6304351;22;20419;-79
2022/10/10 08:42:47;;;;;;;6.73;3.20;;;;;;;16.14;70.82;99811.41;6277660;22;20230;-79
2022/10/10 08:45:24;;;;;;;4.87;2.93;;;;;;;16.07;72.28;99810.81;6278606;22;20526;-79
2022/10/10 08:48:08;;;;;;;4.40;3.13;;;;;;;16.13;72.68;99814.41;6277972;22;20869;-79
2022/10/10 08:50:50;;;;;;;5.03;3.23;;;;;;;16.31;70.74;99808.66;6275596;22;20274;-79
2022/10/10 08:53:28;;;;;;;6.03;3.30;;;;;;;16.43;70.52;99797.69;6277809;22;20207;-79
2022/10/10 08:55:55;;;;;;;7.17;3.70;;;;;;;16.69;69.41;99800.47;6277973;22;20214;-78
2022/10/10 08:58:38;;;;;;;5.43;3.20;;;;;;;16.79;69.03;99797.06;6304059;22;20215;-79
2022/10/10 09:01:09;;;;;;;5.70;3.37;;;;;;;16.87;67.00;99787.66;6277504;22;20214;-79
2022/10/10 09:03:41;;;;;;;5.73;3.20;;;;;;;16.98;66.68;99790.16;6304450;22;20212;-79
2022/10/10 09:06:14;;;;;;;8.03;3.60;;;;;;;17.18;66.12;99792.25;6276807;22;20694;-79
2022/10/10 09:09:02;;;;;;;6.23;3.93;;;;;;;17.39;65.02;99780.50;6304635;22;20207;-80
2022/10/10 09:11:43;;;;;;;6.87;3.93;;;;;;;17.47;64.35;99781.91;6303991;22;20204;-80
2022/10/10 09:14:33;;;;;;;5.23;3.50;;;;;;;17.63;64.47;99780.97;6303076;22;20235;-79
2022/10/10 09:17:09;;;;;;;6.17;3.30;;;;;;;17.64;63.45;99770.94;6276687;22;20389;-79
2022/10/10 09:19:38;;;;;;;5.77;3.60;;;;;;;17.65;64.18;99778.78;6304701;22;20207;-80
2022/10/10 09:22:11;;;;;;;4.47;3.87;;;;;;;17.72;62.35;99770.44;6251525;22;20200;-80
2022/10/10 09:24:44;;;;;;;4.17;3.70;;;;;;;17.85;62.90;99775.38;6304827;22;20219;-79
2022/10/10 09:27:23;;;;;;;4.73;3.73;;;;;;;17.89;62.11;99771.06;6246901;22;20692;-80
2022/10/10 09:29:58;;;;;;;5.93;3.70;;;;;;;17.89;61.34;99754.81;6273230;22;20208;-79
2022/10/10 09:32:43;;;;;;;4.93;4.03;;;;;;;17.91;61.82;99763.50;6272798;22;20204;-80
2022/10/10 09:35:38;;;;;;;5.83;4.03;;;;;;;18.04;62.30;99765.72;6246739;22;20283;-80
2022/10/10 09:38:42;;;;;;;6.60;4.47;;;;;;;18.16;61.96;99754.63;6272592;22;20223;-80
2022/10/10 09:41:44;;;;;;;5.97;4.27;;;;;;;18.20;61.96;99748.41;6209552;22;20552;-81
2022/10/10 09:44:13;;;;;;;4.63;4.20;;;;;;;18.15;62.39;99751.09;6246051;22;20545;-80
2022/10/10 09:46:40;;;;;;;5.87;4.50;;;;;;;18.18;62.13;99747.06;6246333;22;20204;-80
2022/10/10 09:49:06;;;;;;;7.73;4.90;;;;;;;18.30;62.32;99740.31;6273152;22;20216;-80
2022/10/10 09:51:33;;;;;;;7.27;4.90;;;;;;;18.38;62.61;99745.19;6273121;22;20203;-80
2022/10/10 09:54:00;;;;;;;6.00;5.00;;;;;;;18.49;62.36;99741.44;6272973;22;20287;-80
2022/10/10 09:56:30;;;;;;;6.23;4.77;;;;;;;18.60;61.31;99749.63;6272801;22;20223;-80
2022/10/10 09:58:57;;;;;;;6.33;5.07;;;;;;;18.55;61.39;99742.31;6246271;22;20604;-80
2022/10/10 10:01:27;;;;;;;5.77;5.10;;;;;;;18.51;61.63;99745.78;6246144;22;20223;-80
2022/10/10 10:04:15;;;;;;;5.57;5.07;;;;;;;18.43;61.58;99747.13;6273348;22;20204;-80
2022/10/10 10:07:15;;;;;;;8.40;4.97;;;;;;;18.40;62.24;99748.47;6272802;22;20200;-80
2022/10/10 10:09:46;;;;;;;5.70;4.60;;;;;;;18.42;62.23;99753.66;6246545;22;20212;-80
2022/10/10 10:12:22;;;;;;;5.03;4.47;;;;;;;18.39;61.66;99738.69;6245422;22;20219;-79
2022/10/10 10:14:51;;;;;;;7.57;4.50;;;;;;;18.35;61.85;99736.78;6246420;22;20214;-80
2022/10/10 10:17:21;;;;;;;5.57;4.43;;;;;;;18.38;61.77;99742.50;6272799;22;20208;-80
2022/10/10 10:19:48;;;;;;;5.93;4.87;;;;;;;18.41;62.32;99739.25;6246556;22;20204;-81
2022/10/10 10:22:30;;;;;;;5.37;4.57;;;;;;;18.53;61.59;99741.75;6272053;22;20211;-80
2022/10/10 10:24:57;;;;;;;6.27;4.87;;;;;;;18.54;60.90;99740.66;6275130;22;20204;-82
2022/10/10 10:27:25;;;;;;;7.37;4.47;;;;;;;18.72;60.35;99737.44;6277038;22;20230;-80
2022/10/10 10:29:57;;;;;;;9.40;4.47;;;;;;;18.79;60.35;99748.03;6276859;22;20211;-80
2022/10/10 10:32:39;;;;;;;5.67;4.20;;;;;;;18.92;59.85;99737.44;6303067;22;20269;-80
2022/10/10 10:35:27;;;;;;;5.50;4.20;;;;;;;19.12;58.84;99739.34;6277233;22;20211;-80
2022/10/10 10:38:00;;;;;;;5.37;3.57;;;;;;;19.00;58.10;99743.41;6276722;22;20211;-80
2022/10/10 10:40:39;;;;;;;4.33;3.30;;;;;;;18.97;57.84;99733.91;6302894;22;20199;-80
2022/10/10 10:43:10;;;;;;;4.23;3.20;;;;;;;19.11;58.15;99736.91;6303705;22;20228;-86
2022/10/10 10:45:45;;;;;;;6.47;3.27;;;;;;;19.03;57.61;99732.84;6276458;22;20227;-80
2022/10/10 10:48:20;;;;;;;4.10;3.37;;;;;;;19.18;57.52;99726.56;6303116;22;20219;-79
2022/10/10 10:51:14;;;;;;;9.00;3.47;;;;;;;19.22;56.86;99717.59;6276650;22;20207;-79
2022/10/10 10:53:50;;;;;;;3.50;3.20;;;;;;;19.33;57.18;99724.66;6303898;22;20202;-80
2022/10/10 10:56:52;;;;;;;5.80;3.47;;;;;;;19.46;56.68;99726.00;6303229;22;20264;-80
2022/10/10 10:59:27;;;;;;;5.07;3.33;;;;;;;19.81;55.64;99713.41;6243409;22;20211;-80
2022/10/10 11:02:33;;;;;;;4.83;3.23;;;;;;;19.97;55.18;99704.09;6303063;22;20683;-80
2022/10/10 11:05:36;;;;;;;5.63;3.73;;;;;;;20.14;54.70;99699.94;6304429;22;20192;-80
2022/10/10 11:08:25;;;;;;;5.33;3.30;;;;;;;20.25;54.91;99694.44;6277101;22;20203;-79
2022/10/10 11:11:24;;;;;;;3.90;3.20;;;;;;;20.33;54.64;99697.41;6303682;22;20204;-80
2022/10/10 11:14:00;;;;;;;4.13;3.40;;;;;;;20.44;54.20;99696.22;6297861;22;20224;-80
2022/10/10 11:16:47;;;;;;;7.10;3.53;;;;;;;20.30;54.38;99697.09;6276701;22;20281;-80
2022/10/10 11:19:24;;;;;;;4.47;3.20;;;;;;;20.41;54.51;99696.78;6261611;22;20364;-80
2022/10/10 11:22:14;;;;;;;7.47;3.50;;;;;;;20.11;55.02;99688.81;6303235;22;20207;-80
2022/10/10 11:24:45;;;;;;;5.03;3.67;;;;;;;20.36;54.69;99683.22;6303271;22;20208;-79
2022/10/10 11:27:19;;;;;;;5.57;3.90;;;;;;;20.53;54.22;99674.69;6303282;22;20215;-80
2022/10/10 11:29:57;;;;;;;10.17;4.10;;;;;;;20.72;54.22;99678.31;6276325;22;20204;-80
2022/10/10 11:32:40;;;;;;;5.37;3.80;;;;;;;20.67;54.12;99677.56;6275832;22;20268;-80
2022/10/10 11:35:15;;;;;;;6.83;4.27;;;;;;;20.76;53.93;99679.41;6303501;22;20213;-80
2022/10/10 11:37:46;;;;;;;5.37;4.13;;;;;;;20.89;54.19;99675.19;6277058;22;20193;-80
2022/10/10 11:40:26;;;;;;;10.53;4.27;;;;;;;20.89;53.97;99673.28;6285700;22;20756;-80
2022/10/10 11:42:57;;;;;;;5.70;4.23;;;;;;;20.72;54.33;99662.00;6303470;22;20550;-80
2022/10/10 11:45:29;;;;;;;5.50;4.63;;;;;;;20.89;54.29;99665.13;6303482;22;20233;-79
2022/10/10 11:48:00;;;;;;;5.20;4.43;;;;;;;20.94;55.00;99665.09;6276338;22;20210;-79
2022/10/10 11:50:34;;;;;;;6.20;5.07;;;;;;;21.10;54.46;99658.38;6303404;22;20297;-79